Time;durP1;ratioP1;P1;durP2;ratioP2;P2;SDS_P1;SDS_P2;PMS_P1;PMS_P2;Temp;Humidity;BMP_temperature;BMP_pressure;BME280_temperature;BME280_humidity;BME280_pressure;Samples;Min_cycle;Max_cycle;Signal;HPM_P1;HPM_P2
2022/09/27 00:00:37;;;;;;;42.25;16.52;;;;;;;10.43;100.00;98332.38;5153650;27;20050;-56
2022/09/27 00:03:03;;;;;;;54.85;17.25;;;;;;;10.39;100.00;98336.25;5153414;27;20118;-56
2022/09/27 00:05:30;;;;;;;28.65;16.40;;;;;;;10.67;100.00;98343.84;5153669;27;20051;-55
2022/09/27 00:07:57;;;;;;;39.42;16.73;;;;;;;10.78;100.00;98347.41;5153316;27;20042;-56
2022/09/27 00:10:23;;;;;;;28.05;15.65;;;;;;;10.76;100.00;98372.47;5153409;27;20088;-56
2022/09/27 00:12:50;;;;;;;70.50;15.18;;;;;;;10.11;100.00;98381.47;5153412;27;20134;-57
2022/09/27 00:15:16;;;;;;;26.40;15.75;;;;;;;10.68;100.00;98367.34;5153593;27;20454;-56
2022/09/27 00:17:43;;;;;;;53.15;14.73;;;;;;;10.17;100.00;98365.47;5153781;27;20055;-56
2022/09/27 00:20:10;;;;;;;62.83;15.77;;;;;;;10.33;100.00;98344.06;5153463;27;20046;-56
2022/09/27 00:22:36;;;;;;;26.90;15.55;;;;;;;9.97;100.00;98343.81;5153429;27;20161;-55
2022/09/27 00:25:04;;;;;;;51.05;15.70;;;;;;;10.05;100.00;98326.25;5153153;27;20430;-56
2022/09/27 00:27:31;;;;;;;30.70;15.75;;;;;;;10.26;100.00;98316.59;5153619;27;20046;-56
2022/09/27 00:29:58;;;;;;;99.50;15.73;;;;;;;10.06;100.00;98321.56;5153222;27;20054;-55
2022/09/27 00:32:24;;;;;;;114.60;16.02;;;;;;;10.31;100.00;98311.56;5153531;27;20047;-56
2022/09/27 00:34:50;;;;;;;26.55;14.68;;;;;;;10.32;100.00;98315.09;5153173;27;20082;-57
2022/09/27 00:37:17;;;;;;;74.80;17.42;;;;;;;10.36;100.00;98324.09;5152804;27;20053;-55
2022/09/27 00:39:43;;;;;;;45.30;16.15;;;;;;;10.59;100.00;98324.59;5152934;27;20050;-58
2022/09/27 00:42:10;;;;;;;59.67;16.63;;;;;;;10.25;100.00;98343.19;5152982;27;20053;-58
2022/09/27 00:45:03;;;;;;;57.30;16.92;;;;;;;10.42;100.00;98333.53;5152897;27;20513;-56
2022/09/27 00:47:35;;;;;;;51.95;16.50;;;;;;;9.98;100.00;98342.63;5152741;27;20062;-57
2022/09/27 00:50:08;;;;;;;119.38;16.65;;;;;;;10.21;100.00;98325.97;5152765;27;20129;-56
2022/09/27 00:52:42;;;;;;;117.72;16.08;;;;;;;10.23;100.00;98318.16;5152609;27;20046;-56
2022/09/27 00:55:13;;;;;;;114.93;16.20;;;;;;;10.01;100.00;98317.22;5152576;27;20084;-58
2022/09/27 00:57:42;;;;;;;58.33;14.85;;;;;;;9.82;100.00;98290.09;5152643;27;20524;-57
2022/09/27 01:00:12;;;;;;;34.65;15.60;;;;;;;9.99;100.00;98274.97;5152434;27;20158;-56
2022/09/27 01:02:42;;;;;;;74.20;14.73;;;;;;;9.87;100.00;98265.13;5152396;27;20093;-57
2022/09/27 01:05:10;;;;;;;45.42;15.13;;;;;;;10.07;100.00;98249.19;5152405;27;20089;-58
2022/09/27 01:07:37;;;;;;;107.70;15.90;;;;;;;10.01;100.00;98254.25;5152530;27;20102;-56
2022/09/27 01:10:04;;;;;;;73.60;14.23;;;;;;;9.85;100.00;98249.06;5152510;27;20057;-58
2022/09/27 01:12:41;;;;;;;64.95;14.77;;;;;;;9.92;100.00;98251.06;5152173;27;20050;-57
2022/09/27 01:15:19;;;;;;;61.15;14.98;;;;;;;9.99;100.00;98255.78;5152394;27;20070;-56
2022/09/27 01:17:59;;;;;;;24.65;14.27;;;;;;;10.20;100.00;98249.66;5152360;27;20050;-56
2022/09/27 01:21:15;;;;;;;48.45;15.45;;;;;;;9.96;100.00;98271.03;5151487;27;20046;-56
2022/09/27 01:23:53;;;;;;;37.70;14.43;;;;;;;9.99;100.00;98267.53;5152121;27;20050;-57
2022/09/27 01:26:35;;;;;;;67.90;15.20;;;;;;;10.11;100.00;98267.22;5152094;27;20046;-56
2022/09/27 01:29:07;;;;;;;36.97;14.63;;;;;;;10.07;100.00;98271.88;5152112;27;20042;-57
2022/09/27 01:31:41;;;;;;;47.88;14.50;;;;;;;10.06;100.00;98273.06;5152564;27;20058;-55
2022/09/27 01:34:18;;;;;;;48.50;15.45;;;;;;;9.84;100.00;98261.19;5152044;27;20047;-56
2022/09/27 01:36:54;;;;;;;61.35;14.95;;;;;;;9.65;100.00;98248.56;5152052;27;20432;-56
2022/09/27 01:39:32;;;;;;;41.13;14.80;;;;;;;10.01;100.00;98229.59;5152069;27;20061;-56
2022/09/27 01:42:03;;;;;;;23.20;13.18;;;;;;;10.01;100.00;98229.59;5152078;27;20051;-56
2022/09/27 01:44:34;;;;;;;64.18;13.70;;;;;;;9.62;100.00;98240.31;5152175;27;20058;-57
2022/09/27 01:47:04;;;;;;;47.38;14.20;;;;;;;9.45;100.00;98217.16;5152047;27;20078;-56
2022/09/27 01:49:37;;;;;;;42.55;14.27;;;;;;;9.57;100.00;98210.59;5151823;27;20138;-56
2022/09/27 01:52:07;;;;;;;63.65;14.18;;;;;;;9.69;100.00;98212.22;5151570;27;20085;-56
2022/09/27 01:54:39;;;;;;;65.22;15.85;;;;;;;9.79;100.00;98201.31;5151629;27;20086;-56
2022/09/27 01:57:09;;;;;;;137.32;15.63;;;;;;;9.63;100.00;98209.84;5152168;27;20042;-55
2022/09/27 01:59:43;;;;;;;74.75;15.00;;;;;;;9.81;100.00;98207.22;5151692;27;20053;-56
2022/09/27 02:02:12;;;;;;;35.63;14.45;;;;;;;9.57;100.00;98208.63;5151836;27;20058;-58
2022/09/27 02:04:42;;;;;;;75.80;13.85;;;;;;;9.54;100.00;98206.66;5151556;27;20141;-58
2022/09/27 02:07:13;;;;;;;78.72;13.88;;;;;;;9.74;100.00;98198.97;5151718;27;20082;-57
2022/09/27 02:09:44;;;;;;;32.42;12.38;;;;;;;9.49;100.00;98207.00;5151500;27;20084;-56
2022/09/27 02:12:13;;;;;;;43.30;12.73;;;;;;;9.60;100.00;98207.09;5151536;27;20146;-55
2022/09/27 02:14:45;;;;;;;104.97;12.07;;;;;;;9.45;100.00;98198.00;5151360;27;20049;-57
2022/09/27 02:17:21;;;;;;;37.67;11.95;;;;;;;9.64;100.00;98199.69;5151440;27;20046;-56
2022/09/27 02:19:54;;;;;;;56.50;13.55;;;;;;;9.72;100.00;98203.25;5151374;27;20498;-56
2022/09/27 02:22:30;;;;;;;36.25;12.95;;;;;;;9.95;100.00;98209.22;5151271;27;20090;-56
2022/09/27 02:25:02;;;;;;;47.70;13.10;;;;;;;9.67;100.00;98226.28;5151510;27;20055;-55
2022/09/27 02:27:32;;;;;;;50.17;12.80;;;;;;;9.41;100.00;98227.28;5151244;27;20055;-57
2022/09/27 02:30:04;;;;;;;47.40;13.38;;;;;;;9.76;100.00;98207.56;5151537;27;20588;-56
2022/09/27 02:32:33;;;;;;;54.13;13.48;;;;;;;9.59;100.00;98214.50;5151612;27;20054;-56
2022/09/27 02:35:03;;;;;;;93.18;14.05;;;;;;;9.86;100.00;98206.06;5154829;27;20050;-55
2022/09/27 02:37:29;;;;;;;24.13;13.10;;;;;;;9.72;100.00;98219.66;5155078;27;20058;-58
2022/09/27 02:39:56;;;;;;;66.35;13.52;;;;;;;9.77;100.00;98224.78;5154802;27;20053;-56
2022/09/27 02:42:23;;;;;;;83.50;13.20;;;;;;;9.56;100.00;98231.69;5154743;27;20089;-56
2022/09/27 02:44:50;;;;;;;29.50;11.15;;;;;;;9.40;100.00;98228.47;5154791;27;20047;-56
2022/09/27 02:47:43;;;;;;;21.20;10.88;;;;;;;9.14;100.00;98215.75;5154897;27;20506;-55
2022/09/27 02:50:34;;;;;;;28.27;11.38;;;;;;;9.33;100.00;98201.84;5154654;27;20050;-56
2022/09/27 02:53:10;;;;;;;24.17;11.15;;;;;;;9.71;100.00;98183.31;5154412;27;20054;-56
2022/09/27 02:55:46;;;;;;;33.83;11.98;;;;;;;9.43;100.00;98216.75;5154575;27;20047;-57
2022/09/27 02:58:24;;;;;;;80.55;12.57;;;;;;;9.45;100.00;98219.88;5154493;27;20050;-56
2022/09/27 03:01:01;;;;;;;14.48;9.75;;;;;;;8.80;100.00;98220.53;5154438;27;20099;-57
2022/09/27 03:03:36;;;;;;;25.52;11.13;;;;;;;9.16;100.00;98194.25;5153880;27;20082;-56
2022/09/27 03:06:05;;;;;;;13.77;9.88;;;;;;;9.02;100.00;98189.47;5154581;27;20047;-58
2022/09/27 03:08:32;;;;;;;41.83;11.32;;;;;;;9.29;100.00;98190.06;5154335;27;20517;-54
2022/09/27 03:10:58;;;;;;;19.60;11.10;;;;;;;8.96;100.00;98188.25;5154563;27;20089;-56
2022/09/27 03:13:25;;;;;;;21.10;11.05;;;;;;;9.13;100.00;98187.63;5154561;27;20154;-56
2022/09/27 03:15:52;;;;;;;22.00;11.77;;;;;;;9.28;100.00;98201.41;5154514;27;20134;-56
2022/09/27 03:18:18;;;;;;;17.38;11.45;;;;;;;9.60;100.00;98201.63;5154808;27;20051;-56
2022/09/27 03:20:45;;;;;;;21.13;11.05;;;;;;;9.50;100.00;98225.00;5154401;27;20115;-56
2022/09/27 03:23:12;;;;;;;18.75;12.15;;;;;;;9.16;100.00;98221.59;5154466;27;20116;-56
2022/09/27 03:25:39;;;;;;;17.92;10.63;;;;;;;9.27;100.00;98227.97;5154377;27;20138;-57
2022/09/27 03:28:05;;;;;;;21.10;11.45;;;;;;;8.97;100.00;98227.31;5154381;27;20078;-56
2022/09/27 03:30:32;;;;;;;32.75;11.68;;;;;;;9.07;100.00;98216.47;5154120;27;20467;-55
2022/09/27 03:32:58;;;;;;;22.33;10.95;;;;;;;9.22;100.00;98224.78;5154007;27;20074;-56
2022/09/27 03:35:24;;;;;;;32.17;9.57;;;;;;;8.71;100.00;98234.47;5153960;27;20078;-56
2022/09/27 03:37:51;;;;;;;32.65;11.38;;;;;;;9.08;100.00;98231.69;5153854;27;20054;-56
2022/09/27 03:40:18;;;;;;;46.20;10.95;;;;;;;8.60;100.00;98244.53;5153878;27;20515;-56
2022/09/27 03:42:44;;;;;;;53.78;10.93;;;;;;;8.56;100.00;98232.75;5153729;27;20081;-56
2022/09/27 03:45:10;;;;;;;16.10;9.95;;;;;;;8.61;100.00;98225.00;5153318;27;20478;-57
2022/09/27 03:47:40;;;;;;;29.85;14.52;;;;;;;8.67;100.00;98222.75;5153724;27;20085;-56
2022/09/27 03:50:07;;;;;;;15.30;9.63;;;;;;;8.38;100.00;98238.03;5153853;27;20125;-56
2022/09/27 03:52:34;;;;;;;17.88;9.70;;;;;;;8.47;100.00;98216.66;5153597;27;20051;-56
2022/09/27 03:55:01;;;;;;;18.05;11.07;;;;;;;8.68;100.00;98208.69;5153899;27;20049;-56
2022/09/27 03:57:29;;;;;;;18.67;10.95;;;;;;;8.61;100.00;98219.53;5153514;27;20053;-56
2022/09/27 03:59:58;;;;;;;17.20;10.23;;;;;;;8.72;100.00;98217.69;5153707;27;20050;-55
2022/09/27 04:02:25;;;;;;;17.60;11.02;;;;;;;8.79;100.00;98224.41;5153752;27;20060;-56
2022/09/27 04:04:51;;;;;;;15.18;9.93;;;;;;;8.53;100.00;98225.28;5153802;27;20082;-55
2022/09/27 04:07:17;;;;;;;19.92;10.52;;;;;;;8.67;100.00;98212.59;5153639;27;20159;-55
2022/09/27 04:09:45;;;;;;;18.85;11.63;;;;;;;8.62;100.00;98232.03;5153327;27;20053;-55
2022/09/27 04:12:12;;;;;;;17.45;10.82;;;;;;;8.84;100.00;98227.59;5153578;27;20065;-54
2022/09/27 04:14:39;;;;;;;18.52;10.20;;;;;;;8.91;100.00;98241.31;5153555;27;20081;-57
2022/09/27 04:17:05;;;;;;;14.98;8.77;;;;;;;8.74;100.00;98244.66;5153317;27;20429;-54
2022/09/27 04:19:32;;;;;;;14.65;9.35;;;;;;;8.34;100.00;98248.88;5153302;27;20042;-55
2022/09/27 04:21:58;;;;;;;19.77;10.23;;;;;;;8.86;100.00;98224.47;5153405;27;20057;-56
2022/09/27 04:24:24;;;;;;;15.70;9.68;;;;;;;9.22;100.00;98243.94;5153399;27;20097;-54
2022/09/27 04:26:51;;;;;;;18.73;10.60;;;;;;;9.10;100.00;98275.09;5153266;27;20050;-54
2022/09/27 04:29:19;;;;;;;15.98;10.02;;;;;;;8.86;100.00;98279.94;5153060;27;20089;-56
2022/09/27 04:31:46;;;;;;;14.95;9.35;;;;;;;8.96;100.00;98272.97;5153127;27;20053;-57
2022/09/27 04:34:12;;;;;;;12.75;8.93;;;;;;;8.88;100.00;98299.47;5152726;27;20051;-56
2022/09/27 04:36:38;;;;;;;14.32;8.90;;;;;;;9.19;100.00;98300.16;5152924;27;20054;-55
2022/09/27 04:39:07;;;;;;;15.18;9.27;;;;;;;9.06;100.00;98318.78;5152837;27;20080;-56
2022/09/27 04:41:34;;;;;;;16.05;10.98;;;;;;;8.76;100.00;98343.44;5152782;27;20066;-56
2022/09/27 04:44:01;;;;;;;17.63;10.77;;;;;;;8.83;100.00;98329.88;5152812;27;20096;-57
2022/09/27 04:46:30;;;;;;;14.45;10.45;;;;;;;8.88;100.00;98337.72;5152434;27;20051;-56
2022/09/27 04:48:56;;;;;;;16.67;10.48;;;;;;;8.95;100.00;98331.56;5152881;27;20145;-55
2022/09/27 04:51:23;;;;;;;11.93;8.95;;;;;;;8.67;100.00;98349.22;5152633;27;20117;-55
2022/09/27 04:53:49;;;;;;;14.82;9.73;;;;;;;8.84;100.00;98333.41;5152750;27;20485;-57
2022/09/27 04:56:16;;;;;;;14.57;9.05;;;;;;;8.87;100.00;98325.22;5151358;27;20082;-56
2022/09/27 04:58:42;;;;;;;16.30;9.75;;;;;;;8.92;100.00;98326.84;5152499;27;20100;-55
2022/09/27 05:01:09;;;;;;;15.48;10.00;;;;;;;8.80;100.00;98333.34;5152373;27;20099;-54
2022/09/27 05:03:36;;;;;;;14.80;9.82;;;;;;;8.70;100.00;98331.28;5152456;27;20082;-56
2022/09/27 05:06:03;;;;;;;17.50;11.00;;;;;;;8.90;100.00;98312.78;5152198;27;20086;-55
2022/09/27 05:08:29;;;;;;;15.95;10.35;;;;;;;9.21;100.00;98316.97;5152510;27;20083;-57
2022/09/27 05:10:56;;;;;;;16.55;10.13;;;;;;;9.11;100.00;98334.06;5152303;27;20050;-56
2022/09/27 05:13:22;;;;;;;13.75;9.38;;;;;;;8.92;100.00;98354.16;5152192;27;20053;-55
2022/09/27 05:15:48;;;;;;;13.98;9.20;;;;;;;8.86;100.00;98328.31;5152432;27;20509;-57
2022/09/27 05:18:15;;;;;;;17.05;8.65;;;;;;;8.64;100.00;98327.31;5152050;27;20082;-53
2022/09/27 05:20:42;;;;;;;15.23;8.70;;;;;;;8.97;100.00;98325.72;5152390;27;20051;-55
2022/09/27 05:23:08;;;;;;;14.43;9.93;;;;;;;9.17;100.00;98327.88;5151867;27;20516;-56
2022/09/27 05:25:35;;;;;;;16.35;10.43;;;;;;;9.07;100.00;98355.91;5152183;27;20097;-56
2022/09/27 05:28:01;;;;;;;16.67;10.25;;;;;;;9.21;100.00;98352.53;5151780;27;20046;-58
2022/09/27 05:30:28;;;;;;;14.02;9.82;;;;;;;8.88;100.00;98351.41;5151895;27;20085;-56
2022/09/27 05:32:54;;;;;;;15.02;10.02;;;;;;;9.32;100.00;98352.63;5151652;27;20148;-56
2022/09/27 05:35:21;;;;;;;21.80;10.73;;;;;;;9.30;100.00;98388.59;5151706;27;20074;-57
2022/09/27 05:37:52;;;;;;;19.02;9.98;;;;;;;8.93;100.00;98394.03;5151756;27;20046;-56
2022/09/27 05:40:18;;;;;;;20.88;11.15;;;;;;;9.08;100.00;98357.47;5151689;27;20078;-56
2022/09/27 05:42:45;;;;;;;17.40;10.88;;;;;;;9.02;100.00;98339.84;5151429;27;20057;-56
2022/09/27 05:45:11;;;;;;;17.85;10.07;;;;;;;9.10;100.00;98332.50;5151621;27;20519;-57
2022/09/27 05:47:37;;;;;;;19.45;11.25;;;;;;;9.31;100.00;98334.66;5151690;27;20090;-56
2022/09/27 05:50:04;;;;;;;22.00;11.77;;;;;;;9.14;100.00;98345.03;5151561;27;20092;-56
2022/09/27 05:52:30;;;;;;;19.02;10.65;;;;;;;9.45;100.00;98345.72;5151626;27;20459;-57
2022/09/27 05:54:58;;;;;;;21.02;9.73;;;;;;;9.15;100.00;98370.44;5151550;27;20425;-55
2022/09/27 05:57:24;;;;;;;17.38;10.30;;;;;;;9.37;100.00;98353.09;5151706;27;20049;-55
2022/09/27 05:59:50;;;;;;;21.48;10.00;;;;;;;9.60;100.00;98377.53;5151507;27;20047;-52
2022/09/27 06:02:17;;;;;;;17.83;10.25;;;;;;;9.32;100.00;98405.38;5151284;27;20082;-57
2022/09/27 06:04:43;;;;;;;16.65;10.48;;;;;;;9.35;100.00;98401.13;5151438;27;20095;-58
2022/09/27 06:07:10;;;;;;;21.90;11.60;;;;;;;9.49;100.00;98416.88;5151083;27;20047;-65
2022/09/27 06:09:36;;;;;;;20.52;12.13;;;;;;;9.25;100.00;98407.28;5151272;27;20043;-63
2022/09/27 06:12:03;;;;;;;15.60;10.85;;;;;;;9.07;100.00;98380.53;5133176;27;20070;-64
2022/09/27 06:14:30;;;;;;;17.38;11.05;;;;;;;9.26;100.00;98371.31;5151398;27;20150;-63
2022/09/27 06:16:56;;;;;;;23.48;13.07;;;;;;;9.58;100.00;98365.38;5151232;27;20050;-60
2022/09/27 06:19:23;;;;;;;24.27;11.93;;;;;;;9.43;100.00;98391.84;5151366;27;20134;-62
2022/09/27 06:21:50;;;;;;;23.92;12.65;;;;;;;9.56;100.00;98414.22;5151236;27;20137;-61
2022/09/27 06:24:16;;;;;;;18.05;10.80;;;;;;;9.27;100.00;98397.53;5151315;27;20051;-62
2022/09/27 06:26:42;;;;;;;16.77;10.98;;;;;;;9.19;100.00;98406.81;5151051;27;20047;-60
2022/09/27 06:29:09;;;;;;;22.20;11.85;;;;;;;9.58;100.00;98400.97;5151075;27;20207;-59
2022/09/27 06:31:36;;;;;;;16.98;11.38;;;;;;;9.54;100.00;98431.03;5151058;27;20133;-59
2022/09/27 06:34:02;;;;;;;16.67;11.00;;;;;;;9.62;100.00;98438.13;5151087;27;20054;-58
2022/09/27 06:36:28;;;;;;;18.13;11.30;;;;;;;9.50;100.00;98438.41;5151053;27;20105;-56
2022/09/27 06:38:55;;;;;;;18.85;11.93;;;;;;;9.61;100.00;98438.53;5150659;27;20082;-56
2022/09/27 06:41:21;;;;;;;24.10;11.18;;;;;;;9.73;100.00;98451.13;5151137;27;20632;-58
2022/09/27 06:43:48;;;;;;;17.02;11.65;;;;;;;9.65;100.00;98470.22;5150934;27;20405;-57
2022/09/27 06:46:15;;;;;;;16.98;10.52;;;;;;;9.56;100.00;98464.28;5151106;27;20141;-60
2022/09/27 06:48:41;;;;;;;14.75;10.32;;;;;;;9.47;100.00;98479.44;5150766;27;20051;-58
2022/09/27 06:51:08;;;;;;;18.50;11.85;;;;;;;9.74;100.00;98471.88;5150759;27;20047;-63
2022/09/27 06:53:34;;;;;;;16.92;10.40;;;;;;;9.81;100.00;98480.16;5150854;27;20589;-65
2022/09/27 06:56:01;;;;;;;16.42;10.90;;;;;;;9.54;100.00;98493.19;5151528;27;20956;-64
2022/09/27 07:01:13;;;;;;;19.23;11.25;;;;;;;9.58;100.00;98481.09;5150710;27;20078;-64
2022/09/27 07:03:41;;;;;;;21.40;12.45;;;;;;;9.83;100.00;98464.94;5150720;27;20080;-64
2022/09/27 07:06:17;;;;;;;24.77;13.20;;;;;;;9.57;100.00;98467.81;5150625;27;20422;-63
2022/09/27 07:08:43;;;;;;;25.95;14.15;;;;;;;9.65;100.00;98455.75;5150906;27;20046;-63
2022/09/27 07:11:09;;;;;;;29.83;16.23;;;;;;;9.65;100.00;98458.50;5150480;27;20047;-62
2022/09/27 07:13:39;;;;;;;31.20;16.42;;;;;;;9.86;100.00;98453.25;5150651;27;20421;-63
2022/09/27 07:16:06;;;;;;;30.42;15.70;;;;;;;9.79;100.00;98466.84;5150331;27;20051;-65
2022/09/27 07:18:32;;;;;;;19.20;11.15;;;;;;;10.01;100.00;98461.56;5151076;27;20086;-63
2022/09/27 07:21:00;;;;;;;20.60;13.30;;;;;;;10.01;100.00;98492.47;5153971;27;20065;-65
2022/09/27 07:23:26;;;;;;;18.75;12.55;;;;;;;10.46;100.00;98522.63;5153933;27;20080;-63
2022/09/27 07:25:52;;;;;;;19.70;11.57;;;;;;;10.62;100.00;98558.00;5153896;27;20085;-64
2022/09/27 07:28:19;;;;;;;17.70;11.82;;;;;;;11.25;100.00;98576.81;5153753;27;20089;-65
2022/09/27 07:30:46;;;;;;;18.63;11.52;;;;;;;11.31;100.00;98569.03;5153840;27;20522;-64
2022/09/27 07:33:12;;;;;;;15.63;10.45;;;;;;;11.13;100.00;98560.72;5153813;27;20049;-65
2022/09/27 07:35:39;;;;;;;20.50;11.45;;;;;;;11.05;100.00;98548.09;5154245;27;20474;-64
2022/09/27 07:38:07;;;;;;;18.80;12.10;;;;;;;11.18;100.00;98545.84;5153587;27;20535;-65
2022/09/27 07:40:33;;;;;;;22.90;13.73;;;;;;;11.05;100.00;98535.16;5154055;27;20557;-64
2022/09/27 07:43:00;;;;;;;22.25;13.55;;;;;;;11.07;100.00;98537.56;5153639;27;20562;-64
2022/09/27 07:45:26;;;;;;;24.38;15.80;;;;;;;10.93;100.00;98554.72;5153802;27;20043;-64
2022/09/27 07:47:53;;;;;;;27.33;15.52;;;;;;;11.06;100.00;98577.09;5153546;27;20092;-65
2022/09/27 07:50:20;;;;;;;28.85;16.50;;;;;;;11.10;100.00;98569.69;5153562;27;20065;-65
2022/09/27 07:52:49;;;;;;;26.83;16.77;;;;;;;11.02;100.00;98568.06;5153396;27;20050;-65
2022/09/27 07:55:17;;;;;;;26.95;15.90;;;;;;;10.73;100.00;98572.56;5153544;27;20541;-64
2022/09/27 07:57:44;;;;;;;27.27;15.80;;;;;;;10.63;100.00;98576.81;5153308;27;20498;-65
2022/09/27 08:00:14;;;;;;;22.48;13.80;;;;;;;11.03;100.00;98564.97;5153380;27;20047;-65
2022/09/27 08:02:40;;;;;;;20.30;13.57;;;;;;;11.05;100.00;98556.34;5153765;27;20050;-64
2022/09/27 08:05:07;;;;;;;26.13;14.77;;;;;;;11.11;100.00;98554.03;5153243;27;20134;-65
2022/09/27 08:07:34;;;;;;;24.73;14.90;;;;;;;11.11;100.00;98546.56;5153700;27;20093;-64
2022/09/27 08:10:00;;;;;;;22.67;15.35;;;;;;;11.45;100.00;98529.88;5153231;27;20050;-65
2022/09/27 08:12:27;;;;;;;20.40;13.68;;;;;;;11.16;100.00;98498.78;5153463;27;20082;-64
2022/09/27 08:14:57;;;;;;;21.52;12.43;;;;;;;10.79;100.00;98532.66;5153372;27;20055;-64
2022/09/27 08:17:23;;;;;;;17.27;12.18;;;;;;;11.28;100.00;98550.59;5153122;27;20076;-65
2022/09/27 08:19:50;;;;;;;17.77;12.45;;;;;;;11.48;100.00;98518.13;5153291;27;20497;-65
2022/09/27 08:22:16;;;;;;;17.23;13.25;;;;;;;11.57;100.00;98485.63;5153052;27;20077;-65
2022/09/27 08:24:42;;;;;;;20.70;13.70;;;;;;;11.42;100.00;98482.03;5152982;27;20536;-64
2022/09/27 08:27:09;;;;;;;25.20;15.30;;;;;;;11.41;100.00;98474.97;5153018;27;20051;-65
2022/09/27 08:29:40;;;;;;;23.63;14.85;;;;;;;11.35;100.00;98479.28;5153326;27;20046;-65
2022/09/27 08:32:06;;;;;;;26.70;14.10;;;;;;;11.10;100.00;98530.50;5152718;27;20141;-64
2022/09/27 08:34:33;;;;;;;21.17;15.07;;;;;;;10.82;100.00;98543.66;5153127;27;20090;-65
2022/09/27 08:36:59;;;;;;;28.10;15.60;;;;;;;10.69;100.00;98558.81;5152735;27;20058;-65
2022/09/27 08:39:26;;;;;;;24.40;14.43;;;;;;;10.80;100.00;98572.63;5153063;27;20093;-64
2022/09/27 08:42:00;;;;;;;20.65;13.65;;;;;;;10.75;100.00;98570.22;5152770;27;20046;-65
2022/09/27 08:44:36;;;;;;;23.55;13.70;;;;;;;11.13;100.00;98574.44;5152852;27;20051;-63
2022/09/27 08:47:11;;;;;;;19.67;13.90;;;;;;;11.26;100.00;98559.22;5152738;27;20084;-65
2022/09/27 08:49:39;;;;;;;;;;;;;;;11.10;100.00;98531.28;5153066;27;20051;-65
2022/09/27 08:52:12;;;;;;;20.45;13.55;;;;;;;11.04;100.00;98527.34;5152787;27;20034;-65
2022/09/27 08:54:39;;;;;;;16.52;12.70;;;;;;;10.98;100.00;98546.09;5152524;27;20064;-64
2022/09/27 08:57:10;;;;;;;18.63;13.23;;;;;;;10.99;100.00;98550.41;5152545;27;20074;-63
2022/09/27 08:59:41;;;;;;;20.75;13.43;;;;;;;11.20;100.00;98538.78;5152322;27;20061;-65
2022/09/27 09:02:16;;;;;;;20.20;14.23;;;;;;;11.26;100.00;98533.72;5152356;27;20047;-64
2022/09/27 09:04:45;;;;;;;26.02;15.80;;;;;;;11.19;100.00;98548.19;5152373;27;20047;-66
2022/09/27 09:07:26;;;;;;;23.00;15.07;;;;;;;11.20;100.00;98538.00;5152260;27;20043;-64
2022/09/27 09:10:00;;;;;;;25.33;14.98;;;;;;;11.04;100.00;98557.50;5152469;27;20572;-67
2022/09/27 09:12:46;;;;;;;24.25;16.25;;;;;;;11.14;100.00;98548.56;5152331;27;20429;-65
2022/09/27 09:15:32;;;;;;;19.70;13.80;;;;;;;11.04;100.00;98544.59;5152126;27;20058;-64
2022/09/27 09:18:18;;;;;;;23.90;14.65;;;;;;;11.16;100.00;98556.38;5152224;27;20082;-64
2022/09/27 09:21:00;;;;;;;21.92;13.75;;;;;;;11.15;100.00;98550.13;5152092;27;20088;-64
2022/09/27 09:24:05;;;;;;;18.10;12.95;;;;;;;11.01;100.00;98552.78;5152208;27;20097;-65
2022/09/27 09:26:38;;;;;;;21.13;13.43;;;;;;;10.93;100.00;98551.97;5148028;27;20502;-65
2022/09/27 09:29:22;;;;;;;19.20;12.73;;;;;;;11.02;100.00;98555.13;5152013;27;20078;-64
2022/09/27 09:31:57;;;;;;;17.20;12.00;;;;;;;10.95;100.00;98543.34;5151824;27;20475;-63
2022/09/27 09:34:28;;;;;;;16.13;11.25;;;;;;;11.38;100.00;98546.31;5151812;27;20050;-65
2022/09/27 09:36:58;;;;;;;18.67;11.75;;;;;;;11.34;100.00;98535.34;5152079;27;20134;-65
2022/09/27 09:39:30;;;;;;;18.45;11.85;;;;;;;11.64;100.00;98528.78;5152007;27;20179;-65
2022/09/27 09:42:09;;;;;;;19.80;11.48;;;;;;;11.52;100.00;98519.72;5151594;27;20078;-65
2022/09/27 09:44:45;;;;;;;17.77;12.70;;;;;;;11.37;100.00;98523.59;5151778;27;20058;-65
2022/09/27 09:47:19;;;;;;;18.92;11.73;;;;;;;11.54;100.00;98520.13;5151826;27;20401;-65
2022/09/27 09:49:50;;;;;;;;;;;;;;;11.46;100.00;98520.47;5151986;27;20561;-64
2022/09/27 09:52:18;;;;;;;;;;;;;;;11.73;100.00;98493.53;5152103;27;19930;-65
2022/09/27 09:54:45;;;;;;;;;;;;;;;11.88;100.00;98481.41;5152354;27;20017;-65
2022/09/27 09:57:14;;;;;;;;;;;;;;;11.90;100.00;98486.53;5152210;27;20064;-65
2022/09/27 09:59:42;;;;;;;;;;;;;;;11.82;100.00;98460.16;5152375;27;19970;-65
2022/09/27 10:02:18;;;;;;;;;;;;;;;11.74;100.00;98493.13;5151718;27;19923;-64
2022/09/27 10:04:44;;;;;;;;;;;;;;;11.70;100.00;98517.03;5152211;27;19923;-65
2022/09/27 10:07:11;;;;;;;;;;;;;;;11.83;100.00;98506.47;5151847;27;20385;-65
2022/09/27 10:09:38;;;;;;;;;;;;;;;11.45;100.00;98503.22;5151867;27;20374;-65
2022/09/27 10:12:04;;;;;;;;;;;;;;;11.62;100.00;98525.63;5151877;27;19945;-65
2022/09/27 10:14:32;;;;;;;;;;;;;;;11.86;100.00;98518.66;5151736;27;20473;-65
2022/09/27 10:17:00;;;;;;;;;;;;;;;11.35;100.00;98489.47;5151894;27;20164;-65
2022/09/27 10:19:29;;;;;;;;;;;;;;;11.53;100.00;98520.53;5151634;27;19978;-65
2022/09/27 10:21:59;;;;;;;;;;;;;;;11.43;100.00;98518.50;5151886;27;20412;-65
2022/09/27 10:24:25;;;;;;;;;;;;;;;11.54;100.00;98505.63;5151653;27;20460;-65
2022/09/27 10:26:56;;;;;;;;;;;;;;;11.71;100.00;98510.38;5152096;27;19968;-65
2022/09/27 10:29:23;;;;;;;;;;;;;;;11.96;100.00;98468.44;5151621;27;19966;-65
2022/09/27 10:31:51;;;;;;;;;;;;;;;11.75;100.00;98464.47;5151798;27;19923;-65
2022/09/27 10:34:19;;;;;;;;;;;;;;;12.10;100.00;98440.22;5151387;27;20449;-65
2022/09/27 10:36:45;;;;;;;;;;;;;;;11.94;100.00;98419.41;5151522;27;19980;-65
2022/09/27 10:39:22;;;;;;;;;;;;;;;12.45;100.00;98367.94;5151482;27;20434;-65
2022/09/27 10:41:49;;;;;;;;;;;;;;;12.53;100.00;98245.78;5151384;27;19930;-65
2022/09/27 10:44:24;;;;;;;;;;;;;;;12.94;100.00;98190.91;5151347;27;19930;-65
2022/09/27 10:46:52;;;;;;;;;;;;;;;12.98;100.00;98105.59;5151335;27;19975;-65
2022/09/27 10:49:19;;;;;;;;;;;;;;;12.79;100.00;98093.19;5151303;27;20018;-65
2022/09/27 10:51:49;;;;;;;;;;;;;;;12.90;100.00;98134.38;5151115;27;19970;-65
2022/09/27 10:54:20;;;;;;;;;;;;;;;12.78;100.00;98086.13;5153376;27;19966;-65
2022/09/27 10:56:54;;;;;;;;;;;;;;;12.80;100.00;98045.25;5154825;27;19983;-65
2022/09/27 10:59:21;;;;;;;;;;;;;;;12.50;100.00;98127.59;5154840;27;20025;-65
2022/09/27 11:01:48;;;;;;;;;;;;;;;12.64;100.00;98186.00;5154976;27;20393;-65
2022/09/27 11:04:18;;;;;;;;;;;;;;;12.78;100.00;98096.34;5154750;27;19935;-65
2022/09/27 11:06:44;;;;;;;;;;;;;;;13.10;100.00;98068.56;5154900;27;19962;-65
2022/09/27 11:09:17;;;;;;;;;;;;;;;13.27;100.00;98108.13;5154509;27;19923;-65
2022/09/27 11:11:44;;;;;;;;;;;;;;;13.25;100.00;98034.22;5154621;27;19930;-65
2022/09/27 11:14:17;;;;;;;;;;;;;;;12.56;100.00;98003.06;5154282;27;20378;-65
2022/09/27 11:16:49;;;;;;;;;;;;;;;12.69;100.00;98143.53;5154453;27;20302;-65
2022/09/27 11:19:30;;;;;;;;;;;;;;;12.89;100.00;98141.03;5154189;27;19966;-65
2022/09/27 11:22:00;;;;;;;;;;;;;;;12.97;100.00;98142.56;5151066;27;20013;-65
2022/09/27 11:24:38;;;;;;;;;;;;;;;13.12;100.00;98063.41;5154810;27;19923;-65
2022/09/27 11:27:11;;;;;;;;;;;;;;;12.97;100.00;98032.53;5154503;27;20377;-65
2022/09/27 11:29:46;;;;;;;;;;;;;;;13.02;100.00;98095.34;5154625;27;20412;-65
2022/09/27 11:32:18;;;;;;;;;;;;;;;13.41;100.00;98058.41;5154137;27;20036;-65
2022/09/27 11:34:52;;;;;;;;;;;;;;;13.09;100.00;98042.22;5154423;27;20309;-65
2022/09/27 11:37:24;;;;;;;;;;;;;;;12.90;100.00;98035.34;5154199;27;19934;-65
2022/09/27 11:40:01;;;;;;;;;;;;;;;13.20;100.00;98042.91;5154322;27;20030;-65